Flight Track Log - Related Links

Times and Time Zones

All times are in EDT time to prevent confusion due to time zone crossing. See the AAY800 flight status page for this flight to view local times or setup timezone preferences in your user account.

Time Position Orientation Groundspeed Altitude Reporting Facility
EDT Latitude Longitude Course Direction KTS MPH feet Rate Location/Type
Thu 05:13:03 PM 27.9333 -82.7000 24° Northeast 154 177 900  Level Tampa TRACON
Thu 05:13:57 PM 27.9667 -82.6833 North 190 219 2,200 1,895 Climbing Tampa TRACON
Thu 05:14:57 PM 28.0333 -82.6833 360° North 290 334 4,500 2,750 Climbing Tampa TRACON
Thu 05:15:57 PM 28.1167 -82.6833 360° North 291 335 7,700 2,429 Climbing Tampa TRACON
Thu 05:18:27 PM 28.3311 -82.6047 18° North 332 382 13,000 1,977 Climbing Jacksonville Center
Thu 05:24:48 PM 29.0311 -82.6180 358° North 430 495 25,200 1,912 Climbing FlightAware ADS-B
Thu 05:25:40 PM 29.1317 -82.6226 358° North 429 494 26,800 1,537 Climbing FlightAware ADS-B
Thu 05:26:10 PM 29.1903 -82.6254 358° North 438 504 27,300 1,172 Climbing FlightAware ADS-B
Thu 05:29:15 PM 29.5823 -82.6433 358° North 461 531 31,000 1,184 Climbing FlightAware ADS-B
Thu 05:29:58 PM 29.6681 -82.6414 North 473 544 31,800 1,326 Climbing FlightAware ADS-B
Thu 05:30:50 PM 29.7890 -82.6326 North 463 533 33,100 1,468 Climbing FlightAware ADS-B
Thu 05:31:32 PM 29.8777 -82.6267 North 463 533 34,100 1,059 Climbing FlightAware ADS-B
Thu 05:32:15 PM 29.9552 -82.6213 North 461 531 34,600 1,037 Climbing FlightAware ADS-B
Thu 05:32:53 PM 30.0418 -82.6149 North 457 526 35,500 1,187 Climbing FlightAware ADS-B
Thu 05:33:46 PM 30.1625 -82.6065 North 454 522 36,400 795 Climbing FlightAware ADS-B
Thu 05:34:16 PM 30.2146 -82.6027 North 457 526 36,600 600 Climbing FlightAware ADS-B
Thu 05:34:46 PM 30.2890 -82.5975 North 458 527 37,000 343 Climbing FlightAware ADS-B
Thu 05:35:26 PM 30.3747 -82.5916 North 462 532 37,000  Level FlightAware ADS-B
Thu 05:36:06 PM 30.4597 -82.5853 North 461 531 37,000  Level FlightAware ADS-B
Thu 05:36:36 PM 30.5232 -82.5807 North 460 529 37,000  Level FlightAware ADS-B
Thu 05:37:06 PM 30.5865 -82.5761 North 458 527 37,000  Level FlightAware ADS-B
Thu 05:37:51 PM 30.6812 -82.5481 22° Northeast 477 549 37,000  Level FlightAware ADS-B
Thu 05:39:09 PM 30.8415 -82.4729 22° Northeast 472 543 37,000  Level FlightAware ADS-B
Thu 05:40:27 PM 30.9922 -82.4056 22° Northeast 463 533 37,000  Level Jacksonville Center
Thu 05:41:27 PM 31.1111 -82.3514 21° North 469 540 37,000  Level Jacksonville Center
Thu 05:42:27 PM 31.2361 -82.3336 North 463 533 37,000  Level Jacksonville Center
Thu 05:43:27 PM 31.3533 -82.3744 343° North 433 498 37,000  Level Jacksonville Center
Thu 05:44:27 PM 31.4578 -82.4081 345° North 428 493 37,000  Level Jacksonville Center
Thu 05:46:32 PM 31.7119 -82.5008 343° North 437 503 37,000  Level Atlanta Center
Thu 05:47:32 PM 31.8272 -82.5453 342° North 437 503 37,000  Level Atlanta Center
Thu 05:48:32 PM 31.9425 -82.5875 343° North 432 497 37,000  Level Atlanta Center
Thu 05:50:32 PM 32.1772 -82.6719 344° North 432 497 37,000  Level Atlanta Center
Thu 05:51:32 PM 32.2947 -82.7144 343° North 432 497 37,000  Level Atlanta Center
Thu 05:52:32 PM 32.4142 -82.7569 343° North 437 503 37,000  Level Atlanta Center
Thu 05:53:32 PM 32.5231 -82.7997 342° North 437 503 37,000  Level Atlanta Center
Thu 05:54:32 PM 32.6403 -82.8425 343° North 430 495 37,000  Level Atlanta Center
Thu 05:55:32 PM 32.7575 -82.8803 345° North 430 495 37,000  Level Atlanta Center
Thu 06:00:32 PM 33.3250 -83.0917 346° North 435 501 37,000  Level Atlanta Center
Thu 06:04:00 PM 33.7565 -83.2503 343° North  Level FlightAware Approximate
Thu 06:05:00 PM 33.8745 -83.2945 343° North  Level FlightAware Approximate
Thu 06:06:00 PM 33.9936 -83.3347 346° North  Level FlightAware Approximate
Thu 06:07:52 PM 34.1889 -83.3931 347° North 431 496 37,000  Level FlightAware ADS-B (KDZJ)
Thu 06:08:31 PM 34.2652 -83.4150 347° North 432 497 37,000  Level FlightAware ADS-B (KDZJ)
Thu 06:09:12 PM 34.3452 -83.4379 347° North 432 497 37,000  Level FlightAware ADS-B (KDZJ)
Thu 06:09:51 PM 34.4187 -83.4591 347° North 433 498 37,000  Level FlightAware ADS-B (KDZJ)
Thu 06:10:31 PM 34.5001 -83.4825 347° North 433 498 37,000  Level FlightAware ADS-B (KDZJ)
Thu 06:11:11 PM 34.5665 -83.5016 347° North 431 496 37,000  Level FlightAware ADS-B (KDZJ)
Thu 06:11:51 PM 34.6546 -83.5270 347° North 428 493 37,000  Level FlightAware ADS-B (KDZJ)
Thu 06:12:32 PM 34.7349 -83.5503 346° North 418 481 37,000  Level FlightAware ADS-B (KDZJ)
Thu 06:13:11 PM 34.8078 -83.5714 346° North 417 480 37,000 150 Level FlightAware ADS-B (KDZJ)
Thu 06:13:52 PM 34.8886 -83.5949 347° North 429 494 37,200 450 Climbing FlightAware ADS-B (KDZJ)
Thu 06:14:31 PM 34.9577 -83.6149 347° North 429 494 37,600 600 Climbing FlightAware ADS-B (KDZJ)
Thu 06:15:12 PM 35.0434 -83.6400 346° North 429 494 38,000 300 Climbing FlightAware ADS-B (KDZJ)
Thu 06:15:51 PM 35.1200 -83.6626 346° North 418 481 38,000  Level FlightAware ADS-B (KDZJ)
Thu 06:16:31 PM 35.1948 -83.6844 347° North 427 491 38,000  Level FlightAware ADS-B (KDZJ)
Thu 06:17:11 PM 35.2716 -83.7069 346° North 430 495 38,000  Level FlightAware ADS-B (KDZJ)
Thu 06:17:51 PM 35.3377 -83.7264 347° North 432 497 38,000 74 Level FlightAware ADS-B (KDZJ)
Thu 06:18:32 PM 35.4186 -83.7502 347° North 432 497 38,100  Climbing FlightAware ADS-B (KDZJ)
Thu 06:19:09 PM 35.4903 -83.7712 347° North 431 496 38,000 -12 Descending FlightAware ADS-B (KDZJ)
Thu 06:26:52 PM 36.4055 -83.9680 353° North 429 494 38,000  Level FlightAware ADS-B (KMDQ)
Thu 06:28:23 PM 36.5847 -83.9942 353° North 430 495 38,000  Level Indianapolis Center
Thu 06:30:57 PM 36.8856 -84.0396 353° North 430 495 38,000  Level FlightAware ADS-B (KMDQ)
Thu 06:34:00 PM 37.2532 -84.0958 353° North  Level FlightAware Approximate
Thu 06:34:04 PM 37.2628 -84.0964 353° North 421 484 38,000  Level FlightAware ADS-B (KCVG)
Thu 06:39:37 PM 37.9193 -84.1968 353° North 428 493 38,000 -104 Level FlightAware ADS-B (KCVG)
Thu 06:43:39 PM 38.3746 -84.3315 North 438 504 37,000 -360 Descending FlightAware ADS-B (KCVG)
Thu 06:45:10 PM 38.5608 -84.3039 North 443 510 36,000 -469 Descending FlightAware ADS-B (KCVG)
Thu 06:45:47 PM 38.6339 -84.2933 North 445 512 36,000  Level FlightAware ADS-B
Thu 06:46:20 PM 38.7040 -84.2831 North 444 511 36,000  Level FlightAware ADS-B (KCVG)
Thu 06:46:59 PM 38.7840 -84.2713 North 444 511 36,000  Level FlightAware ADS-B
Thu 06:47:30 PM 38.8465 -84.2620 North 445 512 36,000 -190 Level FlightAware ADS-B
Thu 06:48:02 PM 38.9127 -84.2521 North 445 512 35,800 -667 Descending FlightAware ADS-B
Thu 06:48:33 PM 38.9744 -84.2427 North 442 509 35,300 -750 Descending FlightAware ADS-B
Thu 06:49:06 PM 39.0332 -84.2340 North 447 514 35,000 -254 Descending FlightAware ADS-B
Thu 06:49:44 PM 39.1200 -84.2211 North 447 514 35,000  Level FlightAware ADS-B
Thu 06:50:19 PM 39.1923 -84.2103 North 448 516 35,000 -720 Level FlightAware ADS-B
Thu 06:50:59 PM 39.2669 -84.1990 North 443 510 34,100 -1,397 Descending FlightAware ADS-B
Thu 06:51:32 PM 39.3413 -84.1878 North 449 517 33,300 -1,629 Descending FlightAware ADS-B
Thu 06:52:09 PM 39.4186 -84.1762 North 450 518 32,200 -1,545 Descending FlightAware ADS-B
Thu 06:53:13 PM 39.5372 -84.1583 North 449 517 30,700 -1,429 Descending Indianapolis Center
Thu 06:54:15 PM 39.6583 -84.1403 North 443 510 29,200 -1,500 Descending Indianapolis Center
Thu 06:55:17 PM 39.7764 -84.1217 North 434 499 27,600 -1,500 Descending Indianapolis Center
Thu 06:56:19 PM 39.8900 -84.1058 North 418 481 26,100 -1,452 Descending Indianapolis Center
Thu 06:57:21 PM 40.0008 -84.0875 North 406 467 24,600 -1,016 Descending Indianapolis Center
Thu 06:58:23 PM 40.1322 -84.0683 North 400 460 24,000 -532 Descending Indianapolis Center
Thu 06:59:25 PM 40.2411 -84.0503 North 398 458 23,500 -720 Descending Indianapolis Center
Thu 07:00:28 PM 40.3481 -84.0225 11° North 393 452 22,500 -1,056 Descending Indianapolis Center
Thu 07:01:30 PM 40.4564 -83.9867 14° North 395 455 21,300 -1,500 Descending Indianapolis Center
Thu 07:02:32 PM 40.5631 -83.9486 15° North 396 456 19,400 -1,387 Descending Indianapolis Center
Thu 07:04:36 PM 40.7700 -83.8778 15° North 386 444 17,000 -1,552 Descending Indianapolis Center
Thu 07:05:53 PM 40.9150 -83.8278 15° North 386 444 14,200 -2,029 Descending Cleveland Center
Thu 07:06:55 PM 41.0206 -83.7906 15° North 389 448 12,300 -1,548 Descending Cleveland Center
Thu 07:07:57 PM 41.1214 -83.7550 15° North 349 402 11,000 -1,228 Descending Cleveland Center
Thu 07:09:46 PM 41.2611 -83.7058 15° North 307 353 8,800 -1,000 Descending Indianapolis Center
Thu 07:11:03 PM 41.3636 -83.6700 15° North 301 346 7,900 -919 Descending Cleveland Center
Thu 07:13:54 PM 41.5706 -83.6333 North 257 296 5,000 -1,185 Descending Indianapolis Center
Thu 07:14:56 PM 41.6142 -83.6442 349° North 207 238 3,300 -1,645 Descending Indianapolis Center
Thu 07:19:00 PM 41.5833 -83.8000 253° West  Level FlightAware Approximate
Thu 07:26:00 PM 41.5868 -83.8078 253° West  Level Estimated
Thu 07:27:00 PM 41.5868 -83.8078 253° West  Level Estimated
Thu 07:28:00 PM 41.5833 -83.8000 253° West  Level FlightAware Approximate

Login

Don't have an account? Register now (free) for customized features, flight alerts, and more!